Time;durP1;ratioP1;P1;durP2;ratioP2;P2;SDS_P1;SDS_P2;PMS_P1;PMS_P2;Temp;Humidity;BMP_temperature;BMP_pressure;BME280_temperature;BME280_humidity;BME280_pressure;Samples;Min_cycle;Max_cycle;Signal;HPM_P1;HPM_P2
2023/03/14 00:00:30;;;;;;;0.20;0.20;;;;;;;12.23;67.66;98548.91;5138746;28;20074;-80
2023/03/14 00:03:01;;;;;;;0.20;0.20;;;;;;;12.24;67.66;98542.66;5138053;28;20089;-81
2023/03/14 00:05:31;;;;;;;0.50;0.50;;;;;;;12.10;67.30;98533.13;5164318;28;20047;-80
2023/03/14 00:08:02;;;;;;;4.97;1.08;;;;;;;12.05;67.98;98533.44;5148460;28;20035;-79
2023/03/14 00:10:32;;;;;;;0.30;0.30;;;;;;;11.93;68.02;98550.84;5145850;28;20064;-80
2023/03/14 00:13:03;;;;;;;0.15;0.15;;;;;;;12.01;67.59;98554.78;5130151;28;20066;-80
2023/03/14 00:15:34;;;;;;;2.08;1.00;;;;;;;11.98;67.66;98553.19;5139702;28;20046;-80
2023/03/14 00:18:04;;;;;;;3.13;1.33;;;;;;;12.01;67.30;98565.28;5141044;28;20035;-80
2023/03/14 00:20:35;;;;;;;0.30;0.30;;;;;;;11.84;69.08;98569.00;5140888;28;20073;-80
2023/03/14 00:23:05;;;;;;;0.38;0.38;;;;;;;11.78;69.02;98592.13;5147337;28;20027;-79
2023/03/14 00:25:35;;;;;;;2.47;0.70;;;;;;;11.77;69.36;98615.88;5140485;28;20038;-80
2023/03/14 00:28:06;;;;;;;0.30;0.30;;;;;;;11.82;72.38;98667.16;5149397;28;20448;-80
2023/03/14 00:30:37;;;;;;;0.20;0.20;;;;;;;11.49;73.07;98676.25;5150489;28;20586;-78
2023/03/14 00:33:07;;;;;;;0.32;0.32;;;;;;;11.06;75.25;98680.75;5132708;28;20089;-79
2023/03/14 00:35:38;;;;;;;0.30;0.30;;;;;;;10.94;74.41;98669.22;5131466;28;20038;-80
2023/03/14 00:38:08;;;;;;;1.20;0.68;;;;;;;10.62;75.93;98679.91;5142084;28;20042;-79
2023/03/14 00:40:39;;;;;;;0.30;0.30;;;;;;;10.48;77.10;98665.84;5123353;28;20039;-80
2023/03/14 00:43:10;;;;;;;0.22;0.22;;;;;;;10.63;76.92;98650.94;5145261;28;20026;-80
2023/03/14 00:45:40;;;;;;;0.20;0.20;;;;;;;10.53;78.08;98645.41;5144685;28;20086;-80
2023/03/14 00:48:10;;;;;;;0.77;0.57;;;;;;;10.32;78.42;98639.66;5152465;28;20033;-80
2023/03/14 00:50:41;;;;;;;0.20;0.20;;;;;;;10.38;78.46;98631.44;5146042;28;20047;-79
2023/03/14 00:53:12;;;;;;;0.88;0.85;;;;;;;10.34;78.20;98631.69;5148492;28;20616;-80
2023/03/14 00:55:43;;;;;;;0.30;0.30;;;;;;;10.34;77.40;98635.16;5140321;28;20045;-80
2023/03/14 00:58:16;;;;;;;0.20;0.20;;;;;;;10.27;78.10;98630.38;5146113;28;20842;-80
2023/03/14 01:00:46;;;;;;;0.22;0.22;;;;;;;10.21;77.80;98629.81;5149754;28;20042;-81
2023/03/14 01:03:17;;;;;;;0.30;0.30;;;;;;;10.35;77.66;98628.13;5128949;28;20258;-79
2023/03/14 01:05:47;;;;;;;0.30;0.30;;;;;;;10.10;79.53;98618.28;5126550;28;20073;-80
2023/03/14 01:08:18;;;;;;;0.20;0.20;;;;;;;10.26;78.63;98610.34;5161575;28;20031;-80
2023/03/14 01:10:48;;;;;;;0.57;0.57;;;;;;;10.35;78.75;98615.88;5166254;28;20039;-80
2023/03/14 01:13:19;;;;;;;0.30;0.30;;;;;;;10.41;78.19;98624.34;5150566;28;20054;-78
2023/03/14 01:15:49;;;;;;;0.30;0.30;;;;;;;10.45;77.89;98623.25;5135179;28;20237;-79
2023/03/14 01:18:20;;;;;;;2.65;1.45;;;;;;;10.36;78.02;98621.97;5132016;28;20026;-81
2023/03/14 01:20:50;;;;;;;0.30;0.30;;;;;;;10.47;77.77;98605.59;5166847;28;20053;-80
2023/03/14 01:23:21;;;;;;;0.20;0.20;;;;;;;10.48;77.51;98602.06;5163943;28;20045;-79
2023/03/14 01:25:51;;;;;;;0.20;0.20;;;;;;;10.43;78.23;98599.72;5156853;28;20061;-79
2023/03/14 01:28:22;;;;;;;0.85;0.85;;;;;;;10.60;77.19;98593.47;5148166;28;20114;-80
2023/03/14 01:30:52;;;;;;;0.25;0.25;;;;;;;10.68;76.67;98580.72;5142126;28;20050;-80
2023/03/14 01:33:22;;;;;;;0.20;0.20;;;;;;;10.59;77.19;98569.94;5126520;28;20042;-80
2023/03/14 01:35:53;;;;;;;0.57;0.57;;;;;;;10.61;76.40;98568.91;5118767;28;20093;-80
2023/03/14 01:38:23;;;;;;;0.20;0.20;;;;;;;10.64;76.49;98584.44;5158168;28;20037;-79
2023/03/14 01:40:54;;;;;;;0.20;0.20;;;;;;;10.29;77.46;98579.53;5145356;28;20039;-80
2023/03/14 01:43:25;;;;;;;0.30;0.30;;;;;;;10.41;77.14;98574.53;5129230;28;20113;-80
2023/03/14 01:46:05;;;;;;;0.20;0.20;;;;;;;10.26;77.45;98566.63;5129842;28;20054;-80
2023/03/14 01:48:37;;;;;;;1.15;1.10;;;;;;;10.36;77.21;98575.63;5144781;28;20034;-80
2023/03/14 01:51:33;;;;;;;0.20;0.20;;;;;;;10.41;76.12;98570.16;5127488;28;20466;-79
2023/03/14 01:54:31;;;;;;;0.30;0.30;;;;;;;10.57;75.84;98574.44;5117618;28;20126;-80
2023/03/14 01:57:13;;;;;;;1.00;0.70;;;;;;;10.71;75.46;98567.38;5117160;28;20038;-80
2023/03/14 01:59:54;;;;;;;0.30;0.30;;;;;;;10.60;75.74;98558.50;5156558;28;20039;-80
2023/03/14 02:02:26;;;;;;;0.30;0.30;;;;;;;10.68;75.56;98549.25;5126125;28;20030;-80
2023/03/14 02:04:58;;;;;;;0.88;0.88;;;;;;;10.70;75.41;98552.59;5139222;28;20039;-80
2023/03/14 02:07:38;;;;;;;0.30;0.30;;;;;;;10.60;75.92;98558.50;5139482;28;20696;-79
2023/03/14 02:10:10;;;;;;;0.20;0.20;;;;;;;10.53;76.18;98560.69;5139815;28;20105;-80
2023/03/14 02:12:40;;;;;;;0.35;0.35;;;;;;;10.62;75.58;98552.22;5142453;28;20027;-81
2023/03/14 02:15:11;;;;;;;0.20;0.20;;;;;;;10.75;75.35;98548.84;5132761;28;20042;-80
2023/03/14 02:17:44;;;;;;;2.30;0.57;;;;;;;10.77;75.06;98544.38;5144996;28;20062;-80
2023/03/14 02:20:32;;;;;;;0.30;0.30;;;;;;;10.86;74.63;98552.47;5134065;28;20128;-80
2023/03/14 02:23:03;;;;;;;0.55;0.55;;;;;;;10.84;74.77;98559.59;5143152;28;21721;-81
2023/03/14 02:25:45;;;;;;;4.05;0.82;;;;;;;10.88;74.54;98559.41;5126027;28;20389;-80
2023/03/14 02:28:16;;;;;;;0.77;0.77;;;;;;;10.60;75.47;98569.84;5158019;28;20054;-80
2023/03/14 02:30:47;;;;;;;1.70;1.23;;;;;;;10.73;75.44;98571.69;5163744;28;20474;-80
2023/03/14 02:33:20;;;;;;;0.30;0.30;;;;;;;10.69;75.65;98560.56;5130819;28;20061;-81
2023/03/14 02:36:05;;;;;;;0.20;0.20;;;;;;;10.80;75.08;98554.66;5143912;28;20070;-80
2023/03/14 02:38:48;;;;;;;0.20;0.20;;;;;;;10.79;74.79;98556.44;5145696;28;20492;-79
2023/03/14 02:41:19;;;;;;;0.50;0.50;;;;;;;10.66;75.21;98551.13;5144227;28;20598;-80
2023/03/14 02:43:49;;;;;;;0.40;0.40;;;;;;;10.63;75.99;98546.03;5149066;28;20035;-79
2023/03/14 02:46:21;;;;;;;0.75;0.75;;;;;;;10.69;76.20;98548.31;5143956;28;20125;-80
2023/03/14 02:49:11;;;;;;;0.30;0.30;;;;;;;10.64;76.05;98547.72;5135093;28;20022;-80
2023/03/14 02:51:44;;;;;;;0.30;0.30;;;;;;;10.74;75.71;98537.53;5159346;28;20403;-80
2023/03/14 02:54:15;;;;;;;0.43;0.43;;;;;;;10.69;75.92;98537.81;5146394;28;20035;-80
2023/03/14 02:56:46;;;;;;;16.15;0.85;;;;;;;10.74;75.54;98531.44;5157751;28;20046;-80
2023/03/14 02:59:16;;;;;;;0.20;0.20;;;;;;;10.71;75.84;98528.06;5155411;28;20145;-80
2023/03/14 03:01:47;;;;;;;0.30;0.30;;;;;;;10.75;75.64;98533.13;5168573;28;20041;-78
2023/03/14 03:04:17;;;;;;;0.20;0.20;;;;;;;10.71;75.62;98530.66;5170192;28;20034;-80
2023/03/14 03:06:48;;;;;;;0.45;0.45;;;;;;;10.55;75.86;98543.06;5151106;28;20062;-80
2023/03/14 03:09:18;;;;;;;2.03;1.85;;;;;;;10.57;76.53;98545.59;5166385;28;20054;-79
2023/03/14 03:11:48;;;;;;;0.40;0.40;;;;;;;10.57;77.57;98546.44;5127026;28;20039;-79
2023/03/14 03:14:19;;;;;;;0.47;0.47;;;;;;;10.34;79.77;98542.56;5137166;28;20042;-80
2023/03/14 03:16:49;;;;;;;0.60;0.60;;;;;;;10.08;82.12;98548.47;5169802;28;20026;-80
2023/03/14 03:19:20;;;;;;;1.00;0.90;;;;;;;10.21;81.57;98545.94;5156459;28;20027;-79
2023/03/14 03:21:51;;;;;;;0.35;0.35;;;;;;;10.05;82.69;98548.63;5173570;28;20111;-80
2023/03/14 03:24:21;;;;;;;0.52;0.52;;;;;;;9.94;85.07;98540.59;5156218;28;20065;-79
2023/03/14 03:26:52;;;;;;;0.47;0.47;;;;;;;10.08;84.49;98539.78;5146322;28;20061;-80
2023/03/14 03:29:22;;;;;;;1.13;1.05;;;;;;;10.22;83.66;98536.28;5156308;28;20523;-81
2023/03/14 03:31:53;;;;;;;0.75;0.73;;;;;;;10.11;84.70;98536.94;5154799;28;20039;-80
2023/03/14 03:34:23;;;;;;;2.70;1.70;;;;;;;10.17;84.94;98533.13;5145283;28;20084;-80
2023/03/14 03:36:57;;;;;;;0.60;0.60;;;;;;;10.13;84.73;98527.22;5149298;28;20057;-81
2023/03/14 03:39:28;;;;;;;0.25;0.25;;;;;;;10.41;82.82;98520.34;5150268;28;20037;-81
2023/03/14 03:41:58;;;;;;;3.30;1.85;;;;;;;10.35;83.35;98512.78;5140228;28;20023;-81
2023/03/14 03:44:29;;;;;;;0.40;0.40;;;;;;;10.57;80.95;98498.41;5165077;28;20026;-81
2023/03/14 03:46:59;;;;;;;0.35;0.35;;;;;;;10.63;79.91;98500.63;5154274;28;20095;-81
2023/03/14 03:49:31;;;;;;;2.40;1.38;;;;;;;10.68;80.53;98504.66;5169196;28;20023;-81
2023/03/14 03:52:02;;;;;;;0.30;0.30;;;;;;;10.66;81.28;98493.41;5141577;28;20026;-81
2023/03/14 03:54:32;;;;;;;0.35;0.35;;;;;;;10.57;81.62;98496.63;5154384;28;20568;-81
2023/03/14 03:57:03;;;;;;;0.20;0.20;;;;;;;10.47;82.42;98488.50;5127599;28;20030;-81
2023/03/14 03:59:33;;;;;;;0.20;0.20;;;;;;;10.49;82.01;98480.53;5158820;28;20544;-81
2023/03/14 04:02:04;;;;;;;0.30;0.30;;;;;;;10.45;82.21;98492.16;5140677;28;20037;-80
2023/03/14 04:04:34;;;;;;;0.20;0.20;;;;;;;10.49;81.52;98480.53;5139546;28;20386;-79
2023/03/14 04:07:05;;;;;;;0.20;0.20;;;;;;;10.53;81.01;98476.78;5153445;28;20031;-80
2023/03/14 04:09:37;;;;;;;0.88;0.60;;;;;;;10.50;81.76;98474.34;5139749;28;20023;-80
2023/03/14 04:12:08;;;;;;;0.20;0.20;;;;;;;10.23;82.54;98475.94;5124643;28;20027;-79
2023/03/14 04:14:40;;;;;;;0.22;0.22;;;;;;;10.35;82.54;98476.97;5144121;28;20046;-80
2023/03/14 04:17:11;;;;;;;0.30;0.30;;;;;;;10.32;81.71;98479.75;5140306;28;20026;-80
2023/03/14 04:19:42;;;;;;;0.40;0.40;;;;;;;10.35;81.67;98473.47;5139520;28;20035;-81
2023/03/14 04:22:12;;;;;;;0.45;0.45;;;;;;;10.23;82.35;98477.69;5149072;28;20043;-80
2023/03/14 04:24:42;;;;;;;0.20;0.20;;;;;;;10.26;82.32;98476.66;5158309;28;20046;-80
2023/03/14 04:27:14;;;;;;;0.30;0.30;;;;;;;10.31;81.74;98464.13;5143771;28;20038;-80
2023/03/14 04:29:45;;;;;;;0.60;0.60;;;;;;;10.28;82.02;98464.31;5142364;28;20090;-81
2023/03/14 04:32:15;;;;;;;0.30;0.30;;;;;;;10.47;81.00;98456.16;5125828;28;20138;-80
2023/03/14 04:34:45;;;;;;;0.20;0.20;;;;;;;10.34;81.05;98450.81;5154388;28;20114;-80
2023/03/14 04:37:16;;;;;;;0.20;0.20;;;;;;;10.44;80.49;98454.59;5150273;28;20022;-80
2023/03/14 04:39:46;;;;;;;0.30;0.30;;;;;;;10.23;81.13;98460.22;5119893;28;20050;-80
2023/03/14 04:42:17;;;;;;;0.30;0.30;;;;;;;10.33;80.84;98450.00;5125709;28;20019;-80
2023/03/14 04:44:49;;;;;;;0.30;0.30;;;;;;;10.23;80.88;98443.63;5157379;28;20043;-79
2023/03/14 04:47:19;;;;;;;0.30;0.30;;;;;;;10.31;80.50;98436.13;5139348;28;20023;-80
2023/03/14 04:49:50;;;;;;;0.20;0.20;;;;;;;10.27;80.58;98445.13;5142593;28;20049;-80
2023/03/14 04:52:20;;;;;;;0.30;0.30;;;;;;;10.22;80.42;98426.22;5157753;28;20030;-80
2023/03/14 04:54:50;;;;;;;0.20;0.20;;;;;;;10.14;80.45;98433.72;5143957;28;20054;-79
2023/03/14 04:57:21;;;;;;;0.30;0.30;;;;;;;10.38;79.74;98426.97;5130703;28;20038;-80
2023/03/14 04:59:51;;;;;;;0.30;0.30;;;;;;;10.29;79.83;98427.50;5143377;28;20077;-80
2023/03/14 05:02:22;;;;;;;0.30;0.30;;;;;;;10.23;80.23;98413.03;5142155;28;20030;-80
2023/03/14 05:04:52;;;;;;;0.30;0.30;;;;;;;10.16;79.74;98427.47;5153688;28;20065;-80
2023/03/14 05:07:23;;;;;;;0.30;0.30;;;;;;;10.04;79.82;98420.34;5137403;28;20042;-79
2023/03/14 05:09:53;;;;;;;3.30;1.05;;;;;;;10.13;79.49;98424.16;5140881;28;20126;-80
2023/03/14 05:12:24;;;;;;;0.30;0.30;;;;;;;10.10;79.27;98416.50;5146081;28;20096;-79
2023/03/14 05:14:54;;;;;;;0.25;0.25;;;;;;;10.17;78.71;98417.81;5152956;28;20108;-79
2023/03/14 05:17:24;;;;;;;0.30;0.30;;;;;;;10.21;78.97;98414.91;5154198;28;20022;-79
2023/03/14 05:19:55;;;;;;;0.30;0.30;;;;;;;10.02;79.44;98419.59;5146094;28;20038;-79
2023/03/14 05:22:26;;;;;;;0.30;0.30;;;;;;;10.26;78.44;98422.50;5152981;28;20528;-79
2023/03/14 05:24:58;;;;;;;0.20;0.20;;;;;;;10.08;78.97;98408.75;5141327;28;20074;-79
2023/03/14 05:27:28;;;;;;;0.30;0.30;;;;;;;10.13;79.13;98413.69;5155727;28;20805;-78
2023/03/14 05:29:59;;;;;;;0.22;0.22;;;;;;;10.14;79.44;98412.75;5139562;28;20038;-78
2023/03/14 05:32:30;;;;;;;0.22;0.22;;;;;;;10.15;79.39;98414.44;5148133;28;20081;-79
2023/03/14 05:35:00;;;;;;;0.88;0.88;;;;;;;10.07;80.94;98412.31;5126164;28;20077;-78
2023/03/14 05:37:31;;;;;;;0.55;0.55;;;;;;;10.10;80.46;98411.28;5159711;28;20030;-80
2023/03/14 05:40:01;;;;;;;1.08;0.98;;;;;;;10.03;80.92;98406.44;5142496;28;20070;-79
2023/03/14 05:42:33;;;;;;;0.30;0.30;;;;;;;10.07;81.26;98400.03;5130798;28;20044;-79
2023/03/14 05:45:03;;;;;;;0.20;0.20;;;;;;;10.05;81.59;98406.31;5142360;28;20426;-79
2023/03/14 05:47:34;;;;;;;0.30;0.30;;;;;;;9.92;81.72;98393.13;5166481;28;20117;-79
2023/03/14 05:50:05;;;;;;;0.28;0.28;;;;;;;9.86;82.18;98406.63;5145887;28;20276;-80
2023/03/14 05:52:35;;;;;;;0.20;0.20;;;;;;;9.96;81.45;98409.50;5144230;28;20032;-79
2023/03/14 05:55:06;;;;;;;0.25;0.25;;;;;;;9.90;81.93;98408.97;5132493;28;20046;-79
2023/03/14 05:57:36;;;;;;;0.20;0.20;;;;;;;9.91;82.41;98413.25;5128741;28;20367;-79
2023/03/14 06:00:08;;;;;;;4.18;3.03;;;;;;;9.86;81.79;98402.22;5144391;28;20038;-81
2023/03/14 06:02:38;;;;;;;0.25;0.25;;;;;;;9.80;82.10;98406.97;5147662;28;20034;-81
2023/03/14 06:05:09;;;;;;;0.30;0.30;;;;;;;9.80;81.76;98394.72;5142868;28;20051;-79
2023/03/14 06:07:40;;;;;;;0.20;0.20;;;;;;;9.81;81.99;98390.31;5128954;28;20038;-79
2023/03/14 06:10:10;;;;;;;0.40;0.40;;;;;;;9.81;82.25;98395.56;5125574;28;20054;-79
2023/03/14 06:12:44;;;;;;;0.25;0.25;;;;;;;9.98;81.56;98395.38;5148272;28;20061;-79
2023/03/14 06:15:15;;;;;;;0.30;0.30;;;;;;;10.05;80.31;98391.44;5155912;28;20122;-79
2023/03/14 06:17:48;;;;;;;0.20;0.20;;;;;;;9.98;80.81;98397.16;5171107;28;20155;-79
2023/03/14 06:20:19;;;;;;;0.20;0.20;;;;;;;9.93;80.74;98395.66;5162778;28;20046;-80
2023/03/14 06:22:50;;;;;;;0.20;0.20;;;;;;;9.91;80.92;98391.44;5130212;28;20106;-80
2023/03/14 06:25:20;;;;;;;0.30;0.30;;;;;;;9.85;81.29;98410.16;5126673;28;20043;-79
2023/03/14 06:27:50;;;;;;;0.30;0.30;;;;;;;9.89;81.33;98398.56;5122153;28;20031;-80
2023/03/14 06:30:21;;;;;;;0.20;0.20;;;;;;;9.96;80.80;98402.47;5144040;28;20410;-79
2023/03/14 06:32:51;;;;;;;1.05;1.00;;;;;;;10.00;80.81;98396.13;5146644;28;20034;-80
2023/03/14 06:35:22;;;;;;;0.30;0.30;;;;;;;9.98;81.23;98400.59;5156864;28;20047;-79
2023/03/14 06:37:53;;;;;;;0.22;0.22;;;;;;;10.00;81.27;98398.75;5139258;28;20038;-80
2023/03/14 06:40:24;;;;;;;0.25;0.25;;;;;;;10.02;81.28;98409.97;5137340;28;20038;-79
2023/03/14 06:42:54;;;;;;;0.20;0.20;;;;;;;10.06;81.40;98400.97;5148692;28;20047;-79
2023/03/14 06:45:24;;;;;;;0.20;0.20;;;;;;;10.07;81.55;98409.69;5146055;28;20054;-80
2023/03/14 06:47:55;;;;;;;0.50;0.50;;;;;;;10.17;80.89;98400.31;5130672;28;20022;-80
2023/03/14 06:50:25;;;;;;;0.30;0.30;;;;;;;10.14;81.16;98407.50;5132153;28;20453;-80
2023/03/14 06:52:56;;;;;;;0.40;0.40;;;;;;;10.05;82.23;98407.16;5128655;28;20027;-80
2023/03/14 06:55:27;;;;;;;0.20;0.20;;;;;;;10.16;81.74;98411.75;5162181;28;20046;-79
2023/03/14 06:57:57;;;;;;;0.28;0.28;;;;;;;10.13;82.23;98406.69;5149786;28;20339;-79
2023/03/14 07:00:28;;;;;;;0.30;0.30;;;;;;;10.17;81.89;98408.16;5133418;28;20051;-79
2023/03/14 07:02:58;;;;;;;0.30;0.30;;;;;;;10.16;82.10;98418.75;5150971;28;20950;-79
2023/03/14 07:05:29;;;;;;;0.20;0.20;;;;;;;10.17;82.44;98417.81;5144872;28;20122;-80
2023/03/14 07:07:59;;;;;;;0.20;0.20;;;;;;;10.12;82.95;98420.72;5159917;28;20133;-80
2023/03/14 07:10:30;;;;;;;0.20;0.20;;;;;;;10.11;82.73;98413.78;5155526;28;20043;-80
2023/03/14 07:13:00;;;;;;;0.30;0.30;;;;;;;10.16;83.22;98426.59;5146693;28;20039;-81
2023/03/14 07:15:31;;;;;;;0.30;0.30;;;;;;;10.11;83.47;98423.44;5125515;28;20037;-80
2023/03/14 07:18:01;;;;;;;0.20;0.20;;;;;;;10.19;83.07;98418.56;5137885;28;20121;-79
2023/03/14 07:20:32;;;;;;;0.30;0.30;;;;;;;10.19;83.14;98432.50;5151366;28;20149;-80
2023/03/14 07:23:03;;;;;;;0.20;0.20;;;;;;;10.27;83.35;98431.19;5152196;28;20430;-80
2023/03/14 07:25:33;;;;;;;0.20;0.20;;;;;;;10.24;83.46;98429.59;5123768;28;20683;-79
2023/03/14 07:28:03;;;;;;;0.38;0.38;;;;;;;10.20;83.46;98433.34;5132501;28;20032;-81
2023/03/14 07:30:34;;;;;;;0.30;0.30;;;;;;;10.15;83.58;98443.25;5149248;28;20255;-80
2023/03/14 07:33:05;;;;;;;0.20;0.20;;;;;;;10.14;84.46;98434.56;5149906;28;20027;-80
2023/03/14 07:35:37;;;;;;;0.30;0.30;;;;;;;10.18;84.94;98435.22;5144436;28;20047;-81
2023/03/14 07:38:07;;;;;;;0.30;0.30;;;;;;;10.20;84.74;98436.81;5121527;28;20034;-82
2023/03/14 07:40:38;;;;;;;0.20;0.20;;;;;;;10.15;85.02;98438.03;5148575;28;20038;-81
2023/03/14 07:43:08;;;;;;;0.40;0.40;;;;;;;10.25;84.14;98444.38;5132500;28;20023;-80
2023/03/14 07:45:39;;;;;;;0.20;0.20;;;;;;;10.30;83.35;98442.31;5147999;28;20051;-79
2023/03/14 07:48:09;;;;;;;0.30;0.30;;;;;;;10.26;83.95;98447.84;5131184;28;20030;-80
2023/03/14 07:50:40;;;;;;;3.95;0.52;;;;;;;10.23;84.76;98454.13;5131242;28;20046;-80
2023/03/14 07:53:10;;;;;;;0.20;0.20;;;;;;;10.28;84.64;98462.56;5127457;28;20027;-81
2023/03/14 07:55:41;;;;;;;0.30;0.30;;;;;;;10.20;85.04;98451.69;5128810;28;20129;-80
2023/03/14 07:58:12;;;;;;;0.28;0.28;;;;;;;10.27;84.82;98458.25;5132823;28;20470;-81
2023/03/14 08:00:45;;;;;;;0.28;0.28;;;;;;;10.29;84.68;98458.97;5109979;28;20038;-81
2023/03/14 08:03:16;;;;;;;0.30;0.30;;;;;;;10.27;84.55;98463.50;5145756;28;20057;-80
2023/03/14 08:05:49;;;;;;;0.45;0.45;;;;;;;10.34;84.01;98459.53;5155322;28;20071;-80
2023/03/14 08:08:19;;;;;;;0.30;0.30;;;;;;;10.39;83.89;98460.13;5146348;28;20906;-81
2023/03/14 08:10:49;;;;;;;0.30;0.30;;;;;;;10.44;84.48;98464.25;5125209;28;20038;-80
2023/03/14 08:13:21;;;;;;;0.80;0.73;;;;;;;10.41;84.28;98462.66;5145848;28;20121;-79
2023/03/14 08:15:51;;;;;;;0.20;0.20;;;;;;;10.35;84.60;98466.47;5143652;28;20211;-80
2023/03/14 08:18:22;;;;;;;0.55;0.55;;;;;;;10.36;84.78;98473.41;5122139;28;20034;-79
2023/03/14 08:20:52;;;;;;;0.20;0.20;;;;;;;10.36;84.71;98478.66;5145925;28;20080;-79
2023/03/14 08:23:22;;;;;;;0.25;0.25;;;;;;;10.43;84.43;98465.19;5132125;28;20034;-78
2023/03/14 08:25:53;;;;;;;0.20;0.20;;;;;;;10.43;84.16;98475.66;5144106;28;20039;-80
2023/03/14 08:28:23;;;;;;;0.40;0.40;;;;;;;10.43;83.66;98473.88;5148499;28;20034;-79
2023/03/14 08:30:54;;;;;;;0.20;0.20;;;;;;;10.48;84.06;98476.22;5144866;28;20049;-80
2023/03/14 08:33:31;;;;;;;0.30;0.30;;;;;;;10.49;83.50;98480.53;5137294;28;20023;-80
2023/03/14 08:36:02;;;;;;;0.30;0.30;;;;;;;10.50;84.08;98484.81;5126958;28;20042;-79
2023/03/14 08:38:32;;;;;;;0.75;0.75;;;;;;;10.52;85.30;98490.81;5138811;28;20040;-79
2023/03/14 08:41:03;;;;;;;0.30;0.30;;;;;;;10.34;87.69;98496.25;5125510;28;20116;-78
2023/03/14 08:43:34;;;;;;;0.30;0.30;;;;;;;10.44;87.52;98498.31;5137370;28;20034;-78
2023/03/14 08:46:05;;;;;;;0.20;0.20;;;;;;;10.35;88.53;98499.69;5138731;28;20057;-79
2023/03/14 08:48:35;;;;;;;0.20;0.20;;;;;;;10.34;88.85;98513.72;5122358;28;20023;-78
2023/03/14 08:51:12;;;;;;;0.20;0.20;;;;;;;10.14;89.55;98509.72;5142796;28;20089;-78
2023/03/14 08:53:43;;;;;;;0.20;0.20;;;;;;;10.26;89.18;98527.31;5136536;28;20775;-78
2023/03/14 08:56:13;;;;;;;0.30;0.30;;;;;;;10.13;90.34;98528.97;5154485;28;20057;-78
2023/03/14 08:58:44;;;;;;;0.30;0.30;;;;;;;10.15;90.88;98525.34;5138188;28;20018;-78
2023/03/14 09:01:14;;;;;;;0.30;0.30;;;;;;;10.15;91.84;98537.59;5145333;28;20047;-79
2023/03/14 09:03:45;;;;;;;0.20;0.20;;;;;;;10.21;90.28;98534.59;5140937;28;20069;-78
2023/03/14 09:06:17;;;;;;;0.43;0.40;;;;;;;10.37;89.13;98572.09;5124849;28;20065;-78
2023/03/14 09:08:48;;;;;;;0.50;0.50;;;;;;;10.40;87.41;98592.06;5126945;28;20057;-78
2023/03/14 09:11:18;;;;;;;0.20;0.20;;;;;;;10.23;87.91;98603.50;5127603;28;20467;-79
2023/03/14 09:13:49;;;;;;;0.20;0.20;;;;;;;10.17;85.98;98599.47;5129726;28;20026;-79
2023/03/14 09:16:19;;;;;;;0.30;0.30;;;;;;;10.07;83.30;98622.75;5144393;28;20050;-80
2023/03/14 09:18:53;;;;;;;0.40;0.40;;;;;;;10.08;82.75;98641.97;5125721;28;20030;-80
2023/03/14 09:21:23;;;;;;;;;;;;;;;9.76;82.10;98655.97;5150578;28;20039;-79
2023/03/14 09:23:53;;;;;;;0.30;0.30;;;;;;;9.37;80.03;98672.97;5154143;28;19941;-79
2023/03/14 09:26:24;;;;;;;0.30;0.30;;;;;;;9.20;80.99;98668.66;5135515;28;20073;-79
2023/03/14 09:28:54;;;;;;;0.30;0.30;;;;;;;9.10;80.99;98689.25;5138456;28;20387;-79
2023/03/14 09:31:25;;;;;;;0.20;0.20;;;;;;;9.68;80.57;98701.84;5170276;28;20149;-78
2023/03/14 09:33:55;;;;;;;0.30;0.30;;;;;;;9.33;79.78;98710.69;5193644;28;20042;-79
2023/03/14 09:36:26;;;;;;;0.25;0.25;;;;;;;9.11;82.05;98719.72;5174057;28;20082;-79
2023/03/14 09:38:56;;;;;;;0.30;0.30;;;;;;;9.27;81.37;98716.28;5138885;28;20037;-79
2023/03/14 09:41:32;;;;;;;0.20;0.20;;;;;;;8.87;81.62;98734.09;5139096;28;20090;-79
2023/03/14 09:44:06;;;;;;;0.30;0.30;;;;;;;9.17;82.37;98749.09;5155291;28;20460;-79
2023/03/14 09:46:39;;;;;;;0.30;0.30;;;;;;;8.99;82.96;98759.59;5152559;28;20043;-79
2023/03/14 09:49:20;;;;;;;0.45;0.45;;;;;;;9.40;81.45;98764.41;5135432;28;20030;-80
2023/03/14 09:51:55;;;;;;;0.30;0.30;;;;;;;9.52;81.84;98781.22;5161816;28;20097;-80
2023/03/14 09:54:37;;;;;;;0.20;0.20;;;;;;;9.43;81.57;98800.91;5157317;28;20110;-80
2023/03/14 09:57:14;;;;;;;0.35;0.35;;;;;;;9.37;81.21;98808.22;5145804;28;20034;-80
2023/03/14 09:59:46;;;;;;;0.20;0.20;;;;;;;9.20;80.58;98815.19;5151750;28;20046;-81
2023/03/14 10:02:28;;;;;;;0.43;0.43;;;;;;;9.10;80.00;98835.75;5137798;28;20046;-80
2023/03/14 10:05:00;;;;;;;0.30;0.30;;;;;;;9.32;80.64;98841.66;5137199;28;20312;-80
2023/03/14 10:07:32;;;;;;;0.30;0.30;;;;;;;9.35;81.40;98850.19;5152239;28;20030;-80
2023/03/14 10:10:10;;;;;;;0.30;0.30;;;;;;;8.98;81.27;98867.75;5150003;28;20049;-80
2023/03/14 10:12:44;;;;;;;0.50;0.50;;;;;;;9.04;81.29;98871.84;5152969;28;20113;-78
2023/03/14 10:15:23;;;;;;;0.20;0.20;;;;;;;8.96;80.64;98880.91;5162252;28;20094;-79
2023/03/14 10:17:54;;;;;;;0.75;0.57;;;;;;;9.09;80.67;98894.25;5149173;28;20142;-81
2023/03/14 10:20:33;;;;;;;0.20;0.20;;;;;;;9.11;80.42;98900.25;5137656;28;20095;-79
2023/03/14 10:23:23;;;;;;;0.30;0.30;;;;;;;9.12;80.29;98919.41;5129605;28;20035;-80
2023/03/14 10:26:12;;;;;;;0.20;0.20;;;;;;;9.31;79.68;98921.94;5135822;28;20122;-79
2023/03/14 10:28:51;;;;;;;0.38;0.38;;;;;;;9.23;79.98;98931.94;5126178;28;20046;-78
2023/03/14 10:31:25;;;;;;;0.30;0.30;;;;;;;9.13;81.01;98931.56;5139611;28;20064;-78
2023/03/14 10:34:02;;;;;;;0.40;0.40;;;;;;;9.15;81.58;98940.19;5160761;28;20046;-79
2023/03/14 10:36:34;;;;;;;0.20;0.20;;;;;;;9.11;82.06;98949.97;5142796;28;20038;-80
2023/03/14 10:39:17;;;;;;;0.30;0.30;;;;;;;9.23;82.37;98958.09;5138959;28;20047;-80
2023/03/14 10:41:52;;;;;;;0.30;0.30;;;;;;;9.22;82.03;98969.50;5139717;28;20126;-79
2023/03/14 10:44:25;;;;;;;0.30;0.30;;;;;;;9.19;82.39;98980.97;5140042;28;20117;-80
2023/03/14 10:47:02;;;;;;;1.05;1.05;;;;;;;9.34;82.46;98989.84;5138682;28;20030;-79
2023/03/14 10:49:36;;;;;;;0.25;0.25;;;;;;;9.33;82.07;99001.22;5140778;28;20023;-79
2023/03/14 10:52:15;;;;;;;0.30;0.30;;;;;;;9.59;80.94;99006.94;5141148;28;20501;-80
2023/03/14 10:54:56;;;;;;;0.30;0.30;;;;;;;9.41;81.29;99020.00;5138322;28;20049;-80
2023/03/14 10:57:27;;;;;;;0.30;0.30;;;;;;;9.48;80.79;99032.78;5124063;28;20114;-79
2023/03/14 10:59:57;;;;;;;0.30;0.30;;;;;;;9.36;80.28;99029.88;5139278;28;20725;-79
2023/03/14 11:02:38;;;;;;;0.55;0.55;;;;;;;9.44;80.11;99030.34;5123991;28;20043;-79
2023/03/14 11:05:26;;;;;;;0.20;0.20;;;;;;;9.47;80.40;99028.47;5137066;28;20068;-80
2023/03/14 11:08:07;;;;;;;0.30;0.30;;;;;;;9.58;79.12;99049.75;5127602;28;20027;-80
2023/03/14 11:10:42;;;;;;;0.30;0.30;;;;;;;9.42;80.64;99053.13;5126468;28;20122;-79
2023/03/14 11:13:55;;;;;;;1.85;0.85;;;;;;;8.68;79.18;99115.91;5141596;28;20030;-80
2023/03/14 11:16:51;;;;;;;0.25;0.25;;;;;;;8.09;79.17;99123.66;5144997;28;20058;-79
2023/03/14 11:19:41;;;;;;;0.22;0.22;;;;;;;8.82;78.54;99130.06;5124028;28;20030;-80
2023/03/14 11:22:57;;;;;;;0.30;0.30;;;;;;;8.22;79.35;99134.44;5139764;28;20066;-79
2023/03/14 11:26:06;;;;;;;0.30;0.30;;;;;;;8.06;79.66;99135.06;5148753;28;20042;-79
2023/03/14 11:28:47;;;;;;;0.32;0.32;;;;;;;7.99;80.61;99155.38;5126702;28;20042;-79
2023/03/14 11:31:27;;;;;;;0.30;0.30;;;;;;;7.85;81.00;99150.72;5154141;28;20046;-79
2023/03/14 11:34:39;;;;;;;0.32;0.32;;;;;;;8.11;81.16;99163.59;5157777;28;20038;-79
2023/03/14 11:37:33;;;;;;;0.30;0.30;;;;;;;8.27;80.27;99169.06;5134583;28;20046;-80
2023/03/14 11:40:18;;;;;;;0.95;0.95;;;;;;;8.08;79.62;99185.47;5133598;28;20042;-80
2023/03/14 11:43:05;;;;;;;0.30;0.30;;;;;;;8.06;79.99;99189.09;5140016;28;20545;-79
2023/03/14 11:45:39;;;;;;;0.20;0.20;;;;;;;7.70;80.31;99199.19;5123233;28;20042;-80
2023/03/14 11:48:28;;;;;;;;;;;;;;;7.76;80.55;99205.09;5146510;28;20486;-81
2023/03/14 11:51:02;;;;;;;0.30;0.30;;;;;;;7.88;81.11;99213.28;5129205;28;20513;-81
2023/03/14 11:53:51;;;;;;;;;;;;;;;8.06;79.10;99221.25;5158416;28;20395;-83
2023/03/14 11:56:39;;;;;;;0.30;0.30;;;;;;;8.17;79.28;99228.69;5119852;28;19922;-82
2023/03/14 11:59:23;;;;;;;0.28;0.28;;;;;;;8.22;77.69;99231.13;5148562;28;20027;-81
2023/03/14 12:01:59;;;;;;;0.40;0.40;;;;;;;7.92;75.54;99249.72;5131284;28;20110;-81
2023/03/14 12:05:11;;;;;;;0.30;0.30;;;;;;;8.17;75.91;99255.66;5128330;28;20066;-81